Dresser, Indiana
Current Conditions -  °F | °C
As of 2:53 PM on Friday 21 Nov 2014 (Local Time) from KHUF Reporting Station
Clear Clear  
Wind Chill: 29°   Ceiling: Unl
Heat Index: 36°   Visibility: 10mi
Dew Point: 10°   Wind: 9mph
Humidity: 34%   Direction: 130°SE
Pressure: 30.41"   Gusts: NA
Location:  39.5107°N, 87.4772°W
Report Text: KHUF 211953Z 13008KT 10SM CLR 02/M12 A3041 RMK AO2 SLP305 T00221122
Loading
Personal Weather Stations






























Interactive Weather Map New forecast layout! Learn more

10-Day Weather Forecast

Advertisements
Track Severe Weather on mobile